Rogers Heights, Maryland
Current Conditions -  °F | °C
As of 6:40 PM on Saturday 25 Oct 2014 (Local Time) from KCGS Reporting Station
Clear Clear  
Wind Chill: 66°   Ceiling: Unl
Heat Index: 66°   Visibility: 10mi
Dew Point: 37°   Wind: 3mph
Humidity: 35%   Direction: 200°SSW
Pressure: 29.74"   Gusts: NA
Location:  38.9534°N, 76.9444°W
Report Text: KCGS 252240Z AUTO 20003KT 10SM CLR 19/03 A2974 RMK AO1
Loading
Personal Weather Stations






























Interactive Weather Map
Tropical Storm Tracking
New forecast layout! Learn more

10-Day Weather Forecast

Advertisements
Track Severe Weather on mobile